Aneta, ND

3:52 PM CDT on July 25, 2014 (GMT -0500)
Grand Forks Air Force Base (KRDR) Elev 912 ft | 47.96 °N, 97.40 °W | Change Station

Current weather conditions updated 54 minutes ago

Clear
Clear
81 °F
Feels Like 82 °F
N
15
Wind Variable Wind from WNW

Today is forecast to be Warmer than yesterday.

Today
High -- | Low -- °F
--% Chance of Precip.
Yesterday
High -- | Low -- °F
Precip. -- in
6:00 AM 9:15 PM
Waning Crescent, 1% visible
Pressure 29.75 in
Visibility 10.0 miles
Clouds Clear
Heat Index 82 °F
Dew Point 63 °F
Humidity 54%
Rainfall 0.00 in
Snow Depth Not available.
UV 9 out of 12
Pollen 6.70 out of 12
Air Quality Not available.
Flu Activity Not available.
METAR KRDR 251958Z AUTO 30013KT 10SM CLR 27/17 A2975 RMK AO2 SLP075 T02700171

More Conditions Fewer Conditions

Pressure 29.75 in
Visibility 10.0 miles
Clouds Clear
Heat Index 82 °F
Dew Point 63 °F
Humidity 54%
Rainfall 0.00 in
Snow Depth Not available.
UV 9 out of 12
Pollen 6.70 out of 12
Air Quality Not available.
Flu Activity Not available.
METAR KRDR 251958Z AUTO 30013KT 10SM CLR 27/17 A2975 RMK AO2 SLP075 T02700171

More Conditions Fewer Conditions

10-Day Weather Forecast

Almanac

Astronomy

Jul. 25, 2014 Rise Set
Actual Time 6:00 AM CDT 9:15 PM CDT
Civil Twilight 5:22 AM CDT 9:52 PM CDT
Nautical Twilight 4:33 AM CDT 10:41 PM CDT
Astronomical Twilight 3:31 AM CDT 11:43 PM CDT
Moon 5:03 AM CDT 8:09 PM CDT
Length of Visible Light 16h 30m
Length of Day
15h 15m
Tomorrow will be 2m 26s shorter.
Waning Crescent, 1% of the Moon is Illuminated
Today
Waning Crescent
Jul 26
New
Aug 3
First Quarter
Aug 10
Full
Aug 17
Last Quarter

Today's Extremes

State Highs State Lows

Community

WunderPhotos

Upload Photos

1,737,396 photos uploaded!

Nearby

Snow Depth

Station Depth Elevation
No new snow has been reported.

Earthquake Activity

City Distance Mag. Time & Date
No recent earthquake activity has been reported nearby.
Minimum magnitude displayed is 2.5.

Coastal Water Temperatures

Place Temperature
No Stations Reporting

Nearby Weather Stations

There are no personal weather stations in this area.